createdAt,value
2023-02-13T00:00:50.205Z,19.08
2023-02-13T00:03:17.290Z,18.95
2023-02-13T00:05:44.326Z,16.67
2023-02-13T00:08:11.345Z,17.23
2023-02-13T00:10:38.301Z,17.98
2023-02-13T00:13:05.366Z,17.23
2023-02-13T00:15:32.638Z,16.90
2023-02-13T00:17:59.743Z,17.42
2023-02-13T00:20:26.789Z,17.75
2023-02-13T00:22:53.732Z,17.17
2023-02-13T00:25:20.984Z,16.95
2023-02-13T00:27:48.114Z,18.27
2023-02-13T00:30:15.736Z,17.30
2023-02-13T00:32:42.639Z,17.27
2023-02-13T00:35:09.670Z,19.10
2023-02-13T00:37:36.872Z,18.25
2023-02-13T00:40:03.920Z,16.50
2023-02-13T00:42:30.845Z,18.15
2023-02-13T00:44:57.853Z,17.75
2023-02-13T00:47:24.832Z,17.75
2023-02-13T00:49:51.795Z,17.13
2023-02-13T00:52:18.773Z,17.58
2023-02-13T00:54:47.331Z,17.80
2023-02-13T00:57:14.342Z,17.92
2023-02-13T00:59:41.280Z,17.60
2023-02-13T01:02:08.336Z,17.95
2023-02-13T01:04:35.462Z,16.92
2023-02-13T01:07:02.416Z,18.00
2023-02-13T01:09:29.397Z,17.80
2023-02-13T01:11:56.370Z,18.23
2023-02-13T01:14:23.255Z,16.85
2023-02-13T01:16:50.169Z,18.20
2023-02-13T01:19:17.512Z,17.00
2023-02-13T01:21:44.600Z,18.88
2023-02-13T01:24:12.029Z,18.70
2023-02-13T01:26:39.297Z,19.02
2023-02-13T01:29:06.512Z,17.45
2023-02-13T01:31:34.104Z,18.10
2023-02-13T01:34:01.176Z,18.33
2023-02-13T01:36:28.409Z,18.00
2023-02-13T01:38:57.596Z,17.17
2023-02-13T01:41:26.505Z,18.33
2023-02-13T01:43:56.438Z,18.67
2023-02-13T01:46:52.500Z,17.45
2023-02-13T01:49:25.753Z,18.40
2023-02-13T01:51:56.276Z,18.27
2023-02-13T01:54:31.450Z,17.75
2023-02-13T01:57:16.702Z,18.40
2023-02-13T01:59:47.758Z,18.10
2023-02-13T02:02:15.539Z,17.88
2023-02-13T02:04:44.061Z,18.13
2023-02-13T02:07:31.141Z,17.05
2023-02-13T02:10:03.911Z,18.02
2023-02-13T02:12:46.802Z,17.95
2023-02-13T02:15:14.295Z,17.45
2023-02-13T02:17:41.230Z,17.17
2023-02-13T02:20:17.718Z,17.92
2023-02-13T02:23:10.777Z,16.75
2023-02-13T02:25:56.196Z,17.20
2023-02-13T02:31:12.560Z,15.77
2023-02-13T02:34:14.115Z,15.45
2023-02-13T02:36:43.945Z,15.48
2023-02-13T02:39:28.963Z,14.65
2023-02-13T02:42:17.592Z,14.77
2023-02-13T02:45:22.266Z,14.45
2023-02-13T02:48:22.581Z,13.70
2023-02-13T02:51:01.543Z,14.55
2023-02-13T02:53:39.520Z,14.30
2023-02-13T02:56:34.837Z,13.57
2023-02-13T02:59:25.184Z,14.32
2023-02-13T03:02:13.642Z,12.98
2023-02-13T03:05:20.137Z,13.73
2023-02-13T03:07:47.239Z,13.88
2023-02-13T03:10:46.133Z,12.80
2023-02-13T03:13:23.928Z,13.95
2023-02-13T03:16:17.477Z,12.73
2023-02-13T03:19:09.047Z,13.05
2023-02-13T03:22:08.042Z,12.80
2023-02-13T03:25:08.021Z,12.57
2023-02-13T03:28:32.347Z,10.85
2023-02-13T03:31:07.861Z,11.85
2023-02-13T03:33:56.718Z,10.43
2023-02-13T03:37:04.059Z,9.82
2023-02-13T03:39:52.388Z,10.27
2023-02-13T03:42:29.100Z,9.18
2023-02-13T03:45:23.280Z,10.50
2023-02-13T03:47:55.435Z,8.40
2023-02-13T03:50:23.995Z,9.20
2023-02-13T03:52:58.700Z,9.40
2023-02-13T03:56:04.883Z,9.20
2023-02-13T03:58:56.330Z,8.70
2023-02-13T04:01:27.941Z,8.15
2023-02-13T04:04:07.816Z,8.40
2023-02-13T04:06:41.128Z,8.30
2023-02-13T04:09:08.199Z,8.07
2023-02-13T04:11:52.750Z,7.63
2023-02-13T04:14:25.297Z,5.70
2023-02-13T04:17:23.078Z,8.02
2023-02-13T04:19:50.198Z,8.18
2023-02-13T04:22:17.292Z,7.68
2023-02-13T04:24:44.272Z,8.60
2023-02-13T04:27:15.220Z,8.15
2023-02-13T04:29:42.248Z,8.43
2023-02-13T04:32:11.408Z,7.88
2023-02-13T04:34:38.668Z,8.65
2023-02-13T04:37:05.746Z,8.63
2023-02-13T04:39:32.703Z,9.30
2023-02-13T04:41:59.941Z,9.75
2023-02-13T04:44:27.458Z,7.90
2023-02-13T04:46:54.445Z,8.88
2023-02-13T04:49:21.484Z,7.78
2023-02-13T04:51:48.627Z,9.02
2023-02-13T04:54:15.612Z,9.77
2023-02-13T04:56:42.645Z,8.63
2023-02-13T04:59:09.606Z,9.65
2023-02-13T05:01:36.557Z,10.07
2023-02-13T05:04:03.519Z,10.02
2023-02-13T05:06:30.435Z,10.77
2023-02-13T05:08:57.365Z,9.43
2023-02-13T05:11:24.358Z,10.65
2023-02-13T05:13:51.277Z,10.45
2023-02-13T05:16:18.318Z,10.60
2023-02-13T05:18:45.309Z,11.85
2023-02-13T05:21:31.158Z,11.70
2023-02-13T05:23:58.114Z,11.50
2023-02-13T05:26:25.224Z,12.18
2023-02-13T05:29:10.994Z,11.35
2023-02-13T05:31:38.024Z,11.82
2023-02-13T05:34:05.113Z,12.38
2023-02-13T05:36:32.229Z,12.43
2023-02-13T05:38:59.149Z,13.32
2023-02-13T05:41:26.233Z,12.95
2023-02-13T05:43:53.378Z,13.27
2023-02-13T05:46:20.439Z,13.35
2023-02-13T05:48:47.435Z,13.65
2023-02-13T05:51:14.495Z,13.93
2023-02-13T05:53:41.575Z,14.00
2023-02-13T05:56:08.530Z,14.15
2023-02-13T05:58:36.871Z,13.75
2023-02-13T06:01:04.620Z,14.55
2023-02-13T06:03:33.222Z,14.95
2023-02-13T06:06:00.414Z,16.23
2023-02-13T06:08:27.533Z,16.30
2023-02-13T06:10:54.759Z,16.73
2023-02-13T06:13:21.875Z,17.25
2023-02-13T06:15:48.861Z,18.20
2023-02-13T06:18:15.980Z,19.50
2023-02-13T06:20:42.954Z,17.80
2023-02-13T06:23:09.887Z,19.30
2023-02-13T06:25:38.799Z,20.30
2023-02-13T06:28:06.499Z,19.13
2023-02-13T06:30:34.075Z,20.02
2023-02-13T06:33:01.491Z,19.90
2023-02-13T06:35:28.861Z,19.50
2023-02-13T06:38:02.407Z,21.60
2023-02-13T06:40:29.653Z,19.52
2023-02-13T06:42:56.785Z,20.88
2023-02-13T06:45:23.840Z,19.23
2023-02-13T06:47:51.880Z,19.17
2023-02-13T06:50:19.218Z,19.45
2023-02-13T06:52:51.353Z,18.90
2023-02-13T06:55:19.238Z,16.50
2023-02-13T06:57:46.745Z,16.17
2023-02-13T07:00:17.450Z,15.82
2023-02-13T07:02:47.152Z,15.95
2023-02-13T07:05:14.574Z,15.40
2023-02-13T07:07:42.968Z,15.20
2023-02-13T07:10:12.850Z,14.95
2023-02-13T07:12:39.788Z,14.52
2023-02-13T07:15:08.300Z,15.55
2023-02-13T07:17:35.622Z,15.35
2023-02-13T07:20:04.680Z,14.50
2023-02-13T07:22:33.218Z,14.38
2023-02-13T07:25:01.451Z,13.52
2023-02-13T07:27:29.436Z,15.38
2023-02-13T07:29:57.715Z,14.02
2023-02-13T07:32:25.877Z,13.30
2023-02-13T07:35:01.578Z,14.32
2023-02-13T07:37:31.214Z,13.52
2023-02-13T07:39:58.564Z,13.60
2023-02-13T07:42:25.857Z,12.27
2023-02-13T07:44:52.980Z,12.40
2023-02-13T07:47:20.583Z,13.85
2023-02-13T07:49:51.091Z,12.98
2023-02-13T07:52:18.170Z,12.25
2023-02-13T07:54:48.248Z,11.60
2023-02-13T07:57:16.798Z,12.50
2023-02-13T07:59:44.071Z,12.30
2023-02-13T08:02:15.563Z,13.82
2023-02-13T08:04:49.363Z,12.15
2023-02-13T08:07:18.328Z,12.35
2023-02-13T08:10:05.315Z,10.95
2023-02-13T08:12:35.226Z,11.63
2023-02-13T08:15:02.361Z,12.10
2023-02-13T08:17:29.350Z,11.57
2023-02-13T08:19:56.392Z,11.82
2023-02-13T08:22:23.427Z,11.55
2023-02-13T08:24:50.442Z,11.68
2023-02-13T08:27:17.406Z,11.38
2023-02-13T08:29:44.615Z,11.98
2023-02-13T08:32:11.964Z,10.45
2023-02-13T08:34:39.109Z,9.70
2023-02-13T08:37:06.350Z,9.95
2023-02-13T08:39:33.654Z,9.63
2023-02-13T08:42:00.934Z,9.23
2023-02-13T08:44:28.190Z,9.40
2023-02-13T08:46:56.499Z,9.82
2023-02-13T08:49:23.741Z,9.80
2023-02-13T08:51:51.533Z,9.82
2023-02-13T08:54:19.139Z,10.02
2023-02-13T08:56:46.444Z,9.65
2023-02-13T08:59:13.761Z,9.60
2023-02-13T09:01:41.586Z,9.10
2023-02-13T09:04:09.338Z,9.60
2023-02-13T09:06:36.550Z,9.18
2023-02-13T09:09:05.778Z,9.43
2023-02-13T09:11:32.811Z,9.10
2023-02-13T09:13:59.892Z,10.00
2023-02-13T09:16:27.076Z,9.63
2023-02-13T09:18:54.198Z,10.07
2023-02-13T09:21:23.917Z,10.38
2023-02-13T09:23:51.808Z,9.23
2023-02-13T09:26:20.652Z,10.20
2023-02-13T09:28:47.831Z,10.75
2023-02-13T09:31:18.310Z,9.05
2023-02-13T09:33:47.026Z,9.20
2023-02-13T09:36:19.399Z,10.50
2023-02-13T09:38:47.848Z,10.68
2023-02-13T09:41:29.100Z,10.05
2023-02-13T09:44:03.754Z,9.50
2023-02-13T09:46:37.498Z,9.85
2023-02-13T09:49:17.358Z,9.60
2023-02-13T09:51:48.005Z,8.82
2023-02-13T09:54:21.144Z,9.63
2023-02-13T09:57:07.466Z,10.05
2023-02-13T10:00:19.246Z,9.52
2023-02-13T10:02:57.730Z,9.23
2023-02-13T10:05:57.889Z,9.95
2023-02-13T10:08:31.183Z,9.45
2023-02-13T10:11:01.302Z,9.48
2023-02-13T10:13:39.880Z,9.75
2023-02-13T10:16:12.516Z,10.23
2023-02-13T10:19:01.316Z,9.55
2023-02-13T10:21:37.517Z,10.30
2023-02-13T10:24:14.572Z,10.18
2023-02-13T10:26:45.520Z,9.82
2023-02-13T10:29:42.780Z,9.35
2023-02-13T10:32:13.865Z,9.60
2023-02-13T10:34:48.723Z,10.32
2023-02-13T10:37:21.789Z,9.57
2023-02-13T10:39:56.622Z,9.80
2023-02-13T10:42:36.551Z,9.52
2023-02-13T10:45:04.019Z,8.93
2023-02-13T10:48:06.668Z,9.05
2023-02-13T10:50:43.864Z,8.82
2023-02-13T10:53:23.169Z,8.82
2023-02-13T10:56:18.535Z,8.15
2023-02-13T10:58:48.795Z,8.13
2023-02-13T11:01:40.325Z,7.55
2023-02-13T11:04:13.330Z,7.55
2023-02-13T11:07:00.685Z,8.15
2023-02-13T11:09:29.057Z,6.90
2023-02-13T11:11:56.426Z,7.35
2023-02-13T11:14:28.378Z,8.38
2023-02-13T11:17:00.244Z,8.38
2023-02-13T11:19:33.093Z,7.95
2023-02-13T11:22:10.612Z,7.93
2023-02-13T11:24:43.925Z,8.45
2023-02-13T11:27:21.884Z,7.75
2023-02-13T11:30:56.474Z,7.45
2023-02-13T11:33:27.917Z,8.38
2023-02-13T11:36:06.604Z,7.88
2023-02-13T11:38:33.777Z,8.27
2023-02-13T11:41:07.786Z,7.50
2023-02-13T11:43:47.319Z,8.40
2023-02-13T11:46:25.212Z,8.18
2023-02-13T11:49:03.519Z,8.88
2023-02-13T11:51:45.909Z,8.75
2023-02-13T11:54:28.152Z,7.38
2023-02-13T11:57:06.248Z,8.93
2023-02-13T11:59:41.322Z,8.90
2023-02-13T12:02:21.638Z,8.75
2023-02-13T12:05:11.983Z,8.73
2023-02-13T12:07:39.179Z,8.60
2023-02-13T12:10:09.382Z,8.77
2023-02-13T12:12:43.304Z,8.18
2023-02-13T12:15:23.930Z,9.15
2023-02-13T12:18:04.304Z,8.50
2023-02-13T12:20:56.653Z,9.40
2023-02-13T12:23:38.964Z,9.15
2023-02-13T12:49:36.859Z,10.40
2023-02-13T12:56:09.248Z,13.02
2023-02-13T12:58:57.936Z,11.73
2023-02-13T13:02:24.851Z,13.02
2023-02-13T13:05:19.701Z,11.25
2023-02-13T13:08:27.625Z,11.98
2023-02-13T13:11:44.014Z,10.90
2023-02-13T13:14:32.516Z,11.23
2023-02-13T13:17:13.680Z,11.02
2023-02-13T13:20:02.323Z,11.25
2023-02-13T13:22:34.847Z,10.68
2023-02-13T13:25:39.872Z,10.50
2023-02-13T13:28:19.685Z,10.65
2023-02-13T13:30:48.086Z,11.10
2023-02-13T13:33:20.590Z,10.95
2023-02-13T13:36:12.182Z,10.93
2023-02-13T13:39:01.852Z,8.93
2023-02-13T13:41:55.211Z,9.57
2023-02-13T13:44:37.354Z,9.02
2023-02-13T13:47:42.085Z,9.23
2023-02-13T13:50:24.724Z,9.02
2023-02-13T13:53:16.041Z,9.30
2023-02-13T13:56:00.738Z,8.27
2023-02-13T13:58:36.398Z,6.93
2023-02-13T14:01:17.011Z,7.90
2023-02-13T14:03:48.915Z,7.53
2023-02-13T14:06:18.987Z,7.40
2023-02-13T14:08:46.367Z,7.32
2023-02-13T14:11:34.655Z,8.02
2023-02-13T14:14:24.488Z,6.82
2023-02-13T14:16:51.905Z,7.15
2023-02-13T14:19:38.614Z,5.65
2023-02-13T14:22:31.483Z,7.15
2023-02-13T14:25:02.215Z,6.32
2023-02-13T14:27:32.792Z,6.10
2023-02-13T14:30:02.059Z,6.78
2023-02-13T14:32:41.538Z,6.47
2023-02-13T14:35:18.550Z,6.07
2023-02-13T14:37:53.116Z,6.32
2023-02-13T14:40:20.216Z,6.20
2023-02-13T14:42:54.284Z,6.03
2023-02-13T14:45:33.729Z,6.40
2023-02-13T14:48:08.492Z,7.10
2023-02-13T14:50:46.401Z,6.97
2023-02-13T14:53:24.600Z,6.15
2023-02-13T14:56:01.756Z,5.97
2023-02-13T14:58:37.199Z,6.63
2023-02-13T15:01:08.891Z,5.80
2023-02-13T15:03:48.921Z,6.28
2023-02-13T15:06:33.544Z,7.18
2023-02-13T15:09:05.155Z,5.93
2023-02-13T15:11:43.982Z,7.97
2023-02-13T15:14:35.457Z,7.32
2023-02-13T15:17:06.451Z,7.68
2023-02-13T15:19:39.389Z,7.82
2023-02-13T15:22:07.765Z,7.88
2023-02-13T15:24:46.279Z,7.35
2023-02-13T15:27:26.691Z,7.88
2023-02-13T15:29:59.517Z,7.35
2023-02-13T15:32:37.366Z,7.03
2023-02-13T15:35:29.750Z,7.20
2023-02-13T15:37:57.892Z,7.72
2023-02-13T15:40:37.520Z,7.82
2023-02-13T15:43:32.352Z,8.80
2023-02-13T15:46:05.136Z,6.72
2023-02-13T15:48:35.345Z,6.90
2023-02-13T15:51:03.889Z,6.57
2023-02-13T15:53:31.107Z,6.38
2023-02-13T15:56:02.656Z,6.90
2023-02-13T15:58:32.782Z,6.63
2023-02-13T16:01:10.699Z,6.43
2023-02-13T16:03:40.488Z,7.40
2023-02-13T16:06:08.459Z,7.20
2023-02-13T16:08:41.034Z,7.20
2023-02-13T16:11:29.744Z,6.45
2023-02-13T16:14:18.197Z,6.28
2023-02-13T16:16:50.992Z,5.55
2023-02-13T16:19:58.925Z,5.22
2023-02-13T16:22:45.187Z,5.00
2023-02-13T16:25:37.600Z,5.25
2023-02-13T16:28:15.304Z,4.95
2023-02-13T16:30:45.254Z,5.03
2023-02-13T16:33:19.368Z,4.72
2023-02-13T16:35:55.885Z,3.22
2023-02-13T16:38:31.303Z,4.40
2023-02-13T16:41:28.817Z,5.90
2023-02-13T16:44:00.414Z,6.13
2023-02-13T16:46:31.141Z,5.78
2023-02-13T16:49:01.266Z,5.43
2023-02-13T16:51:49.199Z,5.90
2023-02-13T16:54:45.676Z,5.63
2023-02-13T16:57:17.900Z,5.95
2023-02-13T16:59:47.930Z,6.25
2023-02-13T17:02:23.161Z,6.45
2023-02-13T17:05:07.732Z,6.90
2023-02-13T17:07:36.423Z,5.20
2023-02-13T17:10:08.823Z,6.53
2023-02-13T17:12:39.696Z,6.28
2023-02-13T17:15:12.894Z,7.43
2023-02-13T17:17:40.744Z,8.35
2023-02-13T17:20:09.978Z,8.23
2023-02-13T17:22:37.216Z,7.13
2023-02-13T17:25:08.992Z,7.72
2023-02-13T17:27:36.300Z,7.93
2023-02-13T17:30:04.697Z,7.38
2023-02-13T17:32:33.297Z,7.22
2023-02-13T17:35:02.105Z,7.18
2023-02-13T17:37:30.520Z,7.18
2023-02-13T17:39:59.348Z,7.38
2023-02-13T17:42:29.728Z,7.00
2023-02-13T17:44:59.746Z,6.50
2023-02-13T17:47:27.568Z,6.60
2023-02-13T17:50:02.043Z,7.03
2023-02-13T17:52:33.026Z,7.50
2023-02-13T17:55:01.168Z,7.97
2023-02-13T17:57:29.150Z,7.95
2023-02-13T17:59:57.909Z,8.18
2023-02-13T18:02:28.389Z,7.57
2023-02-13T18:04:57.227Z,7.88
2023-02-13T18:07:39.750Z,8.38
2023-02-13T18:10:18.816Z,7.65
2023-02-13T18:12:48.897Z,8.25
2023-02-13T18:15:17.619Z,8.48
2023-02-13T18:17:47.205Z,8.90
2023-02-13T18:20:20.968Z,8.57
2023-02-13T18:22:52.436Z,8.90
2023-02-13T18:25:23.800Z,9.07
2023-02-13T18:27:52.508Z,9.65
2023-02-13T18:30:21.628Z,9.70
2023-02-13T18:32:58.509Z,8.57
2023-02-13T18:35:27.786Z,9.60
2023-02-13T18:37:55.948Z,9.07
2023-02-13T18:40:23.693Z,9.45
2023-02-13T18:42:54.373Z,9.70
2023-02-13T18:45:22.017Z,10.15
2023-02-13T18:47:49.418Z,9.60
2023-02-13T18:50:16.937Z,11.60
2023-02-13T18:52:44.310Z,11.10
2023-02-13T18:55:12.326Z,9.63
2023-02-13T18:57:43.898Z,10.30
2023-02-13T19:00:14.541Z,10.57
2023-02-13T19:02:42.129Z,10.23
2023-02-13T19:05:10.419Z,11.70
2023-02-13T19:07:38.443Z,11.23
2023-02-13T19:10:10.996Z,10.90
2023-02-13T19:12:42.309Z,11.55
2023-02-13T19:15:11.437Z,11.77
2023-02-13T19:17:40.321Z,12.00
2023-02-13T19:20:08.604Z,12.60
2023-02-13T19:22:37.468Z,11.32
2023-02-13T19:25:04.941Z,12.05
2023-02-13T19:27:32.258Z,12.20
2023-02-13T19:29:59.996Z,11.45
2023-02-13T19:32:27.280Z,11.88
2023-02-13T19:34:54.952Z,11.50
2023-02-13T19:37:22.920Z,10.93
2023-02-13T19:39:51.806Z,10.63
2023-02-13T19:42:22.497Z,11.07
2023-02-13T19:44:52.021Z,10.73
2023-02-13T19:47:20.026Z,10.65
2023-02-13T19:49:51.235Z,10.23
2023-02-13T19:52:25.102Z,10.07
2023-02-13T19:54:54.648Z,10.57
2023-02-13T19:57:22.895Z,11.02
2023-02-13T19:59:51.699Z,10.30
2023-02-13T20:02:22.333Z,10.35
2023-02-13T20:04:50.451Z,10.07
2023-02-13T20:07:21.347Z,10.50
2023-02-13T20:09:50.579Z,10.70
2023-02-13T20:12:19.351Z,10.50
2023-02-13T20:14:47.030Z,9.80
2023-02-13T20:17:20.187Z,10.10
2023-02-13T20:19:47.995Z,10.45
2023-02-13T20:22:17.318Z,12.07
2023-02-13T20:24:46.065Z,11.07
2023-02-13T20:27:14.797Z,11.57
2023-02-13T20:29:46.631Z,11.55
2023-02-13T20:32:14.324Z,11.02
2023-02-13T20:34:58.726Z,10.75
2023-02-13T20:39:55.349Z,10.50
2023-02-13T20:42:23.586Z,10.82
2023-02-13T20:44:54.700Z,10.88
2023-02-13T20:47:24.171Z,11.10
2023-02-13T20:50:03.810Z,11.25
2023-02-13T20:52:35.402Z,11.20
2023-02-13T20:55:10.635Z,11.57
2023-02-13T20:57:37.957Z,11.15
2023-02-13T21:00:09.936Z,11.93
2023-02-13T21:02:37.860Z,13.43
2023-02-13T21:05:05.601Z,13.10
2023-02-13T21:07:32.673Z,12.20
2023-02-13T21:10:04.599Z,13.15
2023-02-13T21:12:32.410Z,12.73
2023-02-13T21:15:00.077Z,13.55
2023-02-13T21:17:28.046Z,12.35
2023-02-13T21:19:58.383Z,13.45
2023-02-13T21:22:28.488Z,12.40
2023-02-13T21:24:56.032Z,13.45
2023-02-13T21:27:23.341Z,12.93
2023-02-13T21:29:50.539Z,13.00
2023-02-13T21:32:20.112Z,12.73
2023-02-13T21:34:47.308Z,14.77
2023-02-13T21:37:14.942Z,13.80
2023-02-13T21:39:43.100Z,13.40
2023-02-13T21:42:16.426Z,13.00
2023-02-13T21:44:43.788Z,13.38
2023-02-13T21:47:11.460Z,13.57
2023-02-13T21:49:38.768Z,12.25
2023-02-13T21:52:06.253Z,14.35
2023-02-13T21:54:34.203Z,14.95
2023-02-13T21:57:01.661Z,14.18
2023-02-13T21:59:29.225Z,15.50
2023-02-13T22:01:58.284Z,14.98
2023-02-13T22:04:25.990Z,15.70
2023-02-13T22:06:53.668Z,15.02
2023-02-13T22:09:22.330Z,15.15
2023-02-13T22:11:51.901Z,15.27
2023-02-13T22:14:19.799Z,14.20
2023-02-13T22:16:51.018Z,15.38
2023-02-13T22:19:19.067Z,16.08
2023-02-13T22:21:46.630Z,15.45
2023-02-13T22:24:14.034Z,15.75
2023-02-13T22:26:43.113Z,16.13
2023-02-13T22:29:13.138Z,15.48
2023-02-13T22:31:40.467Z,15.10
2023-02-13T22:34:08.077Z,14.50
2023-02-13T22:36:40.565Z,16.23
2023-02-13T22:39:09.984Z,16.10
2023-02-13T22:41:37.864Z,15.73
2023-02-13T22:44:05.860Z,14.35
2023-02-13T22:46:34.837Z,14.48
2023-02-13T22:49:02.637Z,13.73
2023-02-13T22:51:33.145Z,14.38
2023-02-13T22:54:01.781Z,14.15
2023-02-13T22:56:30.505Z,15.20
2023-02-13T22:58:58.225Z,15.48
2023-02-13T23:01:27.135Z,15.10
2023-02-13T23:03:55.105Z,14.48
2023-02-13T23:06:22.797Z,13.65
2023-02-13T23:08:52.923Z,15.60
2023-02-13T23:11:40.561Z,14.43
2023-02-13T23:14:07.768Z,15.93
2023-02-13T23:16:53.532Z,14.55
2023-02-13T23:19:21.939Z,15.32
2023-02-13T23:21:49.680Z,14.60
2023-02-13T23:24:17.409Z,15.90
2023-02-13T23:26:47.480Z,14.73
2023-02-13T23:29:14.437Z,15.25
2023-02-13T23:31:41.655Z,14.50
2023-02-13T23:34:08.768Z,13.90
2023-02-13T23:36:35.921Z,14.45
2023-02-13T23:39:03.471Z,16.08
2023-02-13T23:41:30.520Z,15.23
2023-02-13T23:43:57.630Z,15.82
2023-02-13T23:46:24.840Z,15.40
2023-02-13T23:48:52.037Z,15.73
2023-02-13T23:51:21.787Z,17.42
2023-02-13T23:53:49.576Z,16.75
2023-02-13T23:56:16.811Z,17.10
2023-02-13T23:58:43.991Z,18.60
